Time;durP1;ratioP1;P1;durP2;ratioP2;P2;SDS_P1;SDS_P2;PMS_P1;PMS_P2;Temp;Humidity;BMP_temperature;BMP_pressure;BME280_temperature;BME280_humidity;BME280_pressure;Samples;Min_cycle;Max_cycle;Signal;HPM_P1;HPM_P2
2023/03/12 00:00:19;;;;;;;11.18;6.00;;;0.00;99.90;;;;;;4934594;29;20050;-81
2023/03/12 00:02:45;;;;;;;16.42;8.88;;;-1.00;99.90;;;;;;4935313;29;20074;-82
2023/03/12 00:05:10;;;;;;;20.90;14.00;;;-0.40;99.90;;;;;;4923501;28;20831;-81
2023/03/12 00:07:37;;;;;;;34.92;25.77;;;0.10;99.90;;;;;;4953737;28;20093;-81
2023/03/12 00:10:05;;;;;;;22.77;18.20;;;-0.30;99.90;;;;;;4954555;28;20050;-81
2023/03/12 00:12:31;;;;;;;16.05;8.32;;;-0.90;99.90;;;;;;4954159;28;20047;-82
2023/03/12 00:14:56;;;;;;;12.70;5.90;;;-0.50;99.90;;;;;;4970073;28;20106;-82
2023/03/12 00:17:22;;;;;;;8.68;4.95;;;-0.90;99.90;;;;;;4938264;28;20046;-81
2023/03/12 00:19:52;;;;;;;9.40;3.75;;;-0.20;99.90;;;;;;4937926;28;20082;-81
2023/03/12 00:22:21;;;;;;;8.48;4.40;;;-0.90;99.90;;;;;;4937855;28;20047;-81
2023/03/12 00:24:53;;;;;;;8.77;3.33;;;-0.40;99.90;;;;;;4953931;28;20390;-82
2023/03/12 00:27:19;;;;;;;13.23;3.75;;;-0.90;99.90;;;;;;4938333;28;20485;-81
2023/03/12 00:29:45;;;;;;;10.60;3.35;;;-0.80;99.90;;;;;;4937052;28;20564;-81
2023/03/12 00:32:10;;;;;;;8.48;3.00;;;-0.90;99.90;;;;;;4938110;28;20038;-81
2023/03/12 00:34:36;;;;;;;15.15;3.58;;;-0.40;99.90;;;;;;4936884;28;20043;-81
2023/03/12 00:37:02;;;;;;;8.70;3.20;;;-0.40;99.90;;;;;;4953035;28;20085;-81
2023/03/12 00:39:27;;;;;;;8.70;3.28;;;-1.00;99.90;;;;;;4938158;28;20088;-81
2023/03/12 00:41:53;;;;;;;9.95;3.70;;;0.10;99.90;;;;;;4952651;28;20136;-82
2023/03/12 00:44:19;;;;;;;8.40;3.88;;;-1.00;99.90;;;;;;4937075;28;20141;-81
2023/03/12 00:46:44;;;;;;;15.32;4.07;;;0.00;99.90;;;;;;4953091;28;20116;-81
2023/03/12 00:49:10;;;;;;;8.23;3.75;;;-0.10;99.90;;;;;;4936992;28;20047;-81
2023/03/12 00:51:37;;;;;;;11.45;4.43;;;-0.60;99.90;;;;;;4936746;28;20057;-81
2023/03/12 00:54:03;;;;;;;14.30;3.83;;;-1.00;99.90;;;;;;4937038;28;20470;-81
2023/03/12 00:56:30;;;;;;;11.73;4.63;;;-1.00;99.90;;;;;;4953080;28;20525;-81
2023/03/12 00:58:55;;;;;;;15.48;4.32;;;-1.00;99.90;;;;;;4953150;28;20046;-81
2023/03/12 01:01:21;;;;;;;14.68;4.72;;;-0.10;99.90;;;;;;4937657;28;20479;-82
2023/03/12 01:03:48;;;;;;;10.70;4.35;;;0.10;99.90;;;;;;4952959;28;20558;-82
2023/03/12 01:06:14;;;;;;;12.20;4.63;;;-1.00;99.90;;;;;;4938698;29;20054;-81
2023/03/12 01:08:40;;;;;;;11.45;4.57;;;-1.10;99.90;;;;;;4918172;29;20043;-82
2023/03/12 01:11:05;;;;;;;11.15;4.32;;;-1.10;99.90;;;;;;4933343;29;20043;-81
2023/03/12 01:13:31;;;;;;;9.30;4.88;;;-1.10;99.90;;;;;;4934540;29;20546;-82
2023/03/12 01:15:57;;;;;;;13.48;5.28;;;-0.10;99.90;;;;;;4933816;29;20066;-82
2023/03/12 01:18:23;;;;;;;12.98;4.68;;;-1.10;99.90;;;;;;4933061;29;20047;-82
2023/03/12 01:20:48;;;;;;;10.90;4.85;;;-0.80;99.90;;;;;;4932882;29;20047;-82
2023/03/12 01:23:15;;;;;;;14.10;5.22;;;-1.20;99.90;;;;;;4933339;29;20059;-82
2023/03/12 01:25:40;;;;;;;13.70;4.78;;;-1.30;99.90;;;;;;4933600;29;20202;-82
2023/03/12 01:28:06;;;;;;;12.20;4.95;;;-1.30;99.90;;;;;;4933907;29;20575;-81
2023/03/12 01:30:32;;;;;;;15.25;4.78;;;-1.30;99.90;;;;;;4917240;29;20043;-81
2023/03/12 01:32:58;;;;;;;12.18;4.90;;;-1.30;99.90;;;;;;4933510;29;20050;-81
2023/03/12 01:35:24;;;;;;;9.38;4.65;;;-1.40;99.90;;;;;;4932642;29;20082;-82
2023/03/12 01:37:49;;;;;;;14.30;5.63;;;-0.80;99.90;;;;;;4932735;29;20058;-82
2023/03/12 01:40:18;;;;;;;12.10;5.03;;;-1.00;99.90;;;;;;4933264;29;20043;-82
2023/03/12 01:42:51;;;;;;;13.75;6.05;;;-1.50;99.90;;;;;;4933577;29;20059;-81
2023/03/12 01:45:54;;;;;;;15.43;5.20;;;-0.80;99.90;;;;;;4948062;29;20062;-81
2023/03/12 01:48:20;;;;;;;12.00;5.18;;;-1.50;99.90;;;;;;4933563;28;20378;-81
2023/03/12 01:50:46;;;;;;;13.88;5.20;;;-1.60;99.90;;;;;;4931958;29;20047;-81
2023/03/12 01:53:12;;;;;;;9.23;5.28;;;-1.50;99.90;;;;;;4932883;29;20047;-81
2023/03/12 01:55:38;;;;;;;13.30;5.35;;;-1.50;99.90;;;;;;4931933;29;20051;-81
2023/03/12 01:58:05;;;;;;;11.23;5.43;;;-0.80;99.90;;;;;;4917293;29;20071;-81
2023/03/12 02:00:31;;;;;;;11.20;5.50;;;-1.50;99.90;;;;;;4932731;28;20051;-81
2023/03/12 02:03:02;;;;;;;13.63;5.38;;;-0.20;99.90;;;;;;4917172;28;20117;-81
2023/03/12 02:05:42;;;;;;;13.63;5.38;;;-1.40;99.90;;;;;;4932453;29;20442;-81
2023/03/12 02:08:09;;;;;;;10.35;5.15;;;-1.30;99.90;;;;;;4916857;29;20603;-82
2023/03/12 02:10:35;;;;;;;11.00;4.78;;;-1.10;99.90;;;;;;4917129;29;20451;-81
2023/03/12 02:13:01;;;;;;;10.95;5.40;;;-0.50;99.90;;;;;;4932630;29;20101;-82
2023/03/12 02:15:27;;;;;;;11.57;5.65;;;-1.10;99.90;;;;;;4932839;29;20142;-81
2023/03/12 02:17:53;;;;;;;12.63;5.88;;;-1.10;99.90;;;;;;4932965;29;20065;-81
2023/03/12 02:20:30;;;;;;;12.82;5.75;;;-1.10;99.90;;;;;;4915896;29;20051;-81
2023/03/12 02:23:14;;;;;;;12.35;5.53;;;-1.00;99.90;;;;;;4948929;29;20061;-81
2023/03/12 02:25:45;;;;;;;9.88;5.38;;;-1.00;99.90;;;;;;4932676;29;20047;-81
2023/03/12 02:28:14;;;;;;;10.32;5.43;;;-0.90;99.90;;;;;;4932591;29;20418;-81
2023/03/12 02:30:44;;;;;;;12.80;5.38;;;-0.90;99.90;;;;;;4932843;29;20086;-81
2023/03/12 02:33:10;;;;;;;10.90;5.38;;;-0.90;99.90;;;;;;4932830;29;20039;-82
2023/03/12 02:35:36;;;;;;;13.68;5.15;;;-0.80;99.90;;;;;;4931629;29;20446;-82
2023/03/12 02:38:03;;;;;;;13.68;5.30;;;-0.80;99.90;;;;;;4932376;29;20039;-81
2023/03/12 02:40:35;;;;;;;13.23;5.10;;;-0.70;99.90;;;;;;4932772;29;20043;-81
2023/03/12 02:43:04;;;;;;;9.38;5.10;;;-0.70;99.90;;;;;;4928880;29;20062;-81
2023/03/12 02:45:30;;;;;;;10.75;5.38;;;-0.70;99.90;;;;;;4929542;29;20496;-81
2023/03/12 02:47:56;;;;;;;11.40;5.00;;;-0.70;99.90;;;;;;4928720;29;20051;-81
2023/03/12 02:50:22;;;;;;;13.77;5.20;;;-0.40;99.90;;;;;;4928106;29;20047;-81
2023/03/12 02:52:47;;;;;;;14.35;4.60;;;-0.70;99.90;;;;;;4929479;29;20046;-82
2023/03/12 02:55:13;;;;;;;9.52;4.68;;;-0.70;99.90;;;;;;4928475;29;20048;-82
2023/03/12 02:57:39;;;;;;;9.70;4.40;;;-0.70;99.90;;;;;;4929446;29;20130;-81
2023/03/12 03:00:11;;;;;;;10.88;4.25;;;-0.70;99.90;;;;;;4957253;28;20062;-81
2023/03/12 03:02:37;;;;;;;10.27;4.57;;;-0.70;99.90;;;;;;4932171;29;20047;-81
2023/03/12 03:05:03;;;;;;;10.00;4.57;;;-0.50;99.90;;;;;;4927270;29;20322;-81
2023/03/12 03:07:28;;;;;;;8.38;4.30;;;-0.60;99.90;;;;;;4932803;29;20059;-81
2023/03/12 03:09:54;;;;;;;8.57;4.00;;;-0.70;99.90;;;;;;4932048;29;20459;-82
2023/03/12 03:12:21;;;;;;;12.90;4.07;;;-0.60;99.90;;;;;;4917330;29;20051;-81
2023/03/12 03:14:47;;;;;;;8.88;3.88;;;-0.60;99.90;;;;;;4933032;29;20055;-81
2023/03/12 03:17:13;;;;;;;11.65;3.65;;;-0.50;99.90;;;;;;4932137;29;20055;-82
2023/03/12 03:19:39;;;;;;;7.57;3.45;;;0.50;99.90;;;;;;4932909;29;20063;-81
2023/03/12 03:22:05;;;;;;;7.78;3.35;;;0.30;99.90;;;;;;4931735;29;20156;-81
2023/03/12 03:24:31;;;;;;;13.98;3.53;;;-0.40;99.90;;;;;;4932767;29;20043;-82
2023/03/12 03:26:56;;;;;;;10.90;3.83;;;0.30;99.90;;;;;;4917258;29;20036;-81
2023/03/12 03:29:22;;;;;;;7.50;3.63;;;0.00;99.90;;;;;;4932491;29;20051;-81
2023/03/12 03:31:48;;;;;;;9.68;3.88;;;-0.30;99.90;;;;;;4931925;29;20048;-81
2023/03/12 03:34:13;;;;;;;7.78;3.08;;;0.40;99.90;;;;;;4932476;29;20054;-81
2023/03/12 03:36:39;;;;;;;9.20;3.90;;;0.40;99.90;;;;;;4931899;29;20047;-81
2023/03/12 03:39:05;;;;;;;9.43;3.70;;;-0.20;99.90;;;;;;4916370;29;20103;-81
2023/03/12 03:41:31;;;;;;;7.55;3.47;;;0.50;99.90;;;;;;4932355;29;20055;-81
2023/03/12 03:43:58;;;;;;;10.40;3.15;;;-0.20;99.90;;;;;;4916776;29;20407;-81
2023/03/12 03:46:24;;;;;;;7.45;3.42;;;-0.10;99.90;;;;;;4915407;29;20051;-82
2023/03/12 03:48:50;;;;;;;12.48;3.50;;;1.00;99.90;;;;;;4932520;29;20139;-81
2023/03/12 03:51:16;;;;;;;6.03;3.33;;;-0.10;99.90;;;;;;4931517;29;20135;-82
2023/03/12 03:53:42;;;;;;;12.10;3.67;;;-0.10;99.90;;;;;;4931836;29;20403;-81
2023/03/12 03:56:12;;;;;;;9.10;3.60;;;0.50;99.90;;;;;;4932383;29;20054;-81
2023/03/12 03:58:37;;;;;;;11.07;3.03;;;-0.10;99.90;;;;;;4947163;29;20161;-82
2023/03/12 04:01:05;;;;;;;9.93;3.85;;;1.20;99.90;;;;;;4932540;29;20495;-81
2023/03/12 04:03:31;;;;;;;7.85;3.10;;;-0.10;99.90;;;;;;4931931;29;20499;-81
2023/03/12 04:05:59;;;;;;;10.05;3.40;;;0.90;99.90;;;;;;4931304;29;20098;-82
2023/03/12 04:08:26;;;;;;;9.43;3.78;;;1.20;99.90;;;;;;4948178;29;20122;-81
2023/03/12 04:10:52;;;;;;;8.00;3.35;;;1.00;99.90;;;;;;4916297;29;20051;-82
2023/03/12 04:13:18;;;;;;;10.18;3.25;;;0.00;99.90;;;;;;4916282;29;20056;-82
2023/03/12 04:15:48;;;;;;;6.70;3.35;;;0.40;99.90;;;;;;4947812;29;20040;-82
2023/03/12 04:18:14;;;;;;;8.45;3.08;;;0.10;99.90;;;;;;4947287;28;20047;-81
2023/03/12 04:20:40;;;;;;;6.20;2.70;;;1.10;99.90;;;;;;4946419;29;20051;-82
2023/03/12 04:23:06;;;;;;;8.93;3.20;;;0.90;99.90;;;;;;4932012;29;20406;-82
2023/03/12 04:25:31;;;;;;;7.72;3.25;;;0.50;99.90;;;;;;4915704;29;20040;-81
2023/03/12 04:27:57;;;;;;;7.03;2.97;;;0.40;99.90;;;;;;4931758;29;20551;-82
2023/03/12 04:30:23;;;;;;;11.13;3.13;;;0.60;99.90;;;;;;4931936;29;20177;-82
2023/03/12 04:32:50;;;;;;;6.38;3.30;;;1.00;99.90;;;;;;4947359;29;20543;-82
2023/03/12 04:35:16;;;;;;;10.80;3.50;;;0.20;99.90;;;;;;4914768;29;20047;-82
2023/03/12 04:37:41;;;;;;;11.10;3.30;;;0.10;99.90;;;;;;4915563;29;20051;-82
2023/03/12 04:40:09;;;;;;;6.53;3.50;;;0.10;99.90;;;;;;4931400;29;20087;-82
2023/03/12 04:42:35;;;;;;;11.27;3.67;;;0.10;99.90;;;;;;4930821;29;20051;-82
2023/03/12 04:45:02;;;;;;;9.75;3.15;;;0.10;99.90;;;;;;4931351;29;20043;-82
2023/03/12 04:47:29;;;;;;;7.03;3.20;;;0.90;99.90;;;;;;4947679;29;20495;-82
2023/03/12 04:49:55;;;;;;;10.68;3.47;;;0.10;99.90;;;;;;4913999;29;20051;-81
2023/03/12 04:52:21;;;;;;;6.57;3.38;;;1.00;99.90;;;;;;4915669;29;20046;-82
2023/03/12 04:54:46;;;;;;;8.60;3.30;;;1.00;99.90;;;;;;4914515;29;20058;-82
2023/03/12 04:57:12;;;;;;;14.25;4.03;;;0.70;99.90;;;;;;4931001;29;20047;-82
2023/03/12 04:59:38;;;;;;;10.32;4.00;;;0.20;99.90;;;;;;4930957;29;20055;-81
2023/03/12 05:02:03;;;;;;;7.07;3.80;;;0.10;99.90;;;;;;4914211;29;20094;-82
2023/03/12 05:04:29;;;;;;;11.95;3.67;;;0.20;99.90;;;;;;4915604;29;20054;-82
2023/03/12 05:06:55;;;;;;;7.63;3.67;;;0.50;99.90;;;;;;4913952;29;20146;-82
2023/03/12 05:09:20;;;;;;;7.93;3.72;;;0.20;99.90;;;;;;4930450;29;20043;-82
2023/03/12 05:11:46;;;;;;;10.48;4.05;;;0.20;99.90;;;;;;4930832;29;20048;-82
2023/03/12 05:14:12;;;;;;;10.05;3.92;;;0.20;99.90;;;;;;4930618;29;20036;-82
2023/03/12 05:16:38;;;;;;;9.02;3.45;;;0.20;99.90;;;;;;4930072;29;20538;-82
2023/03/12 05:19:04;;;;;;;9.45;3.70;;;0.20;99.90;;;;;;4915102;29;20099;-82
2023/03/12 05:21:30;;;;;;;7.55;3.47;;;0.40;99.90;;;;;;4930284;29;20047;-81
2023/03/12 05:23:56;;;;;;;9.88;3.85;;;0.20;99.90;;;;;;4930352;29;20488;-82
2023/03/12 05:26:24;;;;;;;7.75;3.38;;;0.40;99.90;;;;;;4914328;29;20051;-81
2023/03/12 05:28:50;;;;;;;17.48;3.97;;;0.40;99.90;;;;;;4930620;29;20044;-82
2023/03/12 05:31:16;;;;;;;8.90;3.80;;;1.00;99.90;;;;;;4929429;29;20043;-82
2023/03/12 05:33:42;;;;;;;6.28;3.53;;;0.20;99.90;;;;;;4930863;29;20059;-82
2023/03/12 05:36:09;;;;;;;11.82;3.60;;;1.20;99.90;;;;;;4929506;29;20042;-82
2023/03/12 05:38:34;;;;;;;9.57;3.70;;;0.20;99.90;;;;;;4929394;29;20090;-82
2023/03/12 05:41:00;;;;;;;8.48;3.80;;;0.20;99.90;;;;;;4930576;29;20062;-82
2023/03/12 05:43:27;;;;;;;14.65;3.67;;;0.50;99.90;;;;;;4929920;29;20062;-82
2023/03/12 05:45:53;;;;;;;10.18;4.35;;;0.70;99.90;;;;;;4929609;29;20052;-82
2023/03/12 05:48:19;;;;;;;11.40;3.50;;;0.70;99.90;;;;;;4930580;29;20052;-81
2023/03/12 05:50:45;;;;;;;6.63;3.70;;;0.20;99.90;;;;;;4928903;29;20039;-82
2023/03/12 05:53:11;;;;;;;9.02;3.92;;;0.30;99.90;;;;;;4914163;29;20047;-81
2023/03/12 05:55:38;;;;;;;10.32;3.88;;;0.20;99.90;;;;;;4929535;29;20043;-82
2023/03/12 05:58:04;;;;;;;8.68;3.55;;;0.80;99.90;;;;;;4929633;29;20123;-82
2023/03/12 06:00:31;;;;;;;9.88;4.28;;;0.80;99.90;;;;;;4930068;29;20043;-82
2023/03/12 06:02:57;;;;;;;9.65;3.90;;;1.30;99.90;;;;;;4930578;29;20127;-82
2023/03/12 06:05:23;;;;;;;13.38;4.15;;;1.00;99.90;;;;;;4929017;29;20158;-82
2023/03/12 06:07:49;;;;;;;9.32;4.18;;;0.80;99.90;;;;;;4913876;29;20035;-81
2023/03/12 06:10:15;;;;;;;8.05;4.50;;;1.00;99.90;;;;;;4929858;29;20144;-82
2023/03/12 06:12:40;;;;;;;10.43;4.15;;;0.40;99.90;;;;;;4929134;29;20048;-82
2023/03/12 06:15:07;;;;;;;6.30;3.83;;;1.20;99.90;;;;;;4929889;29;20032;-81
2023/03/12 06:17:32;;;;;;;8.35;3.97;;;0.40;99.90;;;;;;4929801;29;20784;-82
2023/03/12 06:19:58;;;;;;;11.80;4.13;;;0.50;99.90;;;;;;4928596;29;20071;-82
2023/03/12 06:22:25;;;;;;;12.13;5.68;;;0.40;99.90;;;;;;4930083;29;20496;-82
2023/03/12 06:24:51;;;;;;;12.68;5.25;;;1.20;99.90;;;;;;4928978;29;20059;-82
2023/03/12 06:27:16;;;;;;;12.93;4.75;;;0.40;99.90;;;;;;4929211;29;20048;-82
2023/03/12 06:29:42;;;;;;;9.98;4.57;;;0.40;99.90;;;;;;4929936;29;20110;-82
2023/03/12 06:32:08;;;;;;;10.75;4.80;;;0.50;99.90;;;;;;4928501;29;20044;-82
2023/03/12 06:34:34;;;;;;;12.45;5.28;;;1.40;99.90;;;;;;4929229;29;20106;-83
2023/03/12 06:37:00;;;;;;;11.07;5.10;;;0.40;99.90;;;;;;4928753;29;20055;-82
2023/03/12 06:39:26;;;;;;;9.25;4.63;;;1.60;99.90;;;;;;4929808;29;20047;-82
2023/03/12 06:41:51;;;;;;;8.43;4.88;;;0.40;99.90;;;;;;4928550;29;20043;-82
2023/03/12 06:44:17;;;;;;;12.55;4.85;;;1.70;99.90;;;;;;4929075;29;20675;-82
2023/03/12 06:46:43;;;;;;;8.68;5.03;;;0.60;99.90;;;;;;4929090;29;20502;-82
2023/03/12 06:49:10;;;;;;;9.55;5.03;;;0.70;99.90;;;;;;4929100;29;20061;-82
2023/03/12 06:51:36;;;;;;;12.02;5.00;;;1.20;99.90;;;;;;4913090;29;20063;-82
2023/03/12 06:54:01;;;;;;;10.85;5.30;;;1.60;99.90;;;;;;4929430;29;20051;-82
2023/03/12 06:56:29;;;;;;;11.05;5.30;;;0.60;99.90;;;;;;4928397;29;20048;-82
2023/03/12 06:58:55;;;;;;;13.55;5.35;;;0.60;99.90;;;;;;4929219;29;20547;-82
2023/03/12 07:01:21;;;;;;;9.63;5.32;;;1.10;99.90;;;;;;4928605;29;20086;-82
2023/03/12 07:03:46;;;;;;;10.57;5.70;;;1.40;99.90;;;;;;4929693;29;20062;-82
2023/03/12 07:06:15;;;;;;;12.15;5.07;;;0.60;99.90;;;;;;4927419;29;20055;-82
2023/03/12 07:08:41;;;;;;;13.27;5.63;;;1.40;99.90;;;;;;4928896;29;20080;-82
2023/03/12 07:11:08;;;;;;;9.00;4.80;;;0.70;99.90;;;;;;4929413;29;20039;-82
2023/03/12 07:13:34;;;;;;;16.65;6.25;;;2.00;99.90;;;;;;4928609;29;20054;-83
2023/03/12 07:16:00;;;;;;;9.77;5.40;;;1.30;99.90;;;;;;4928923;29;20043;-83
2023/03/12 07:18:26;;;;;;;15.05;6.53;;;0.80;99.90;;;;;;4939088;28;20087;-82
2023/03/12 07:20:52;;;;;;;18.00;7.00;;;0.80;99.90;;;;;;4938272;29;20074;-81
2023/03/12 07:23:18;;;;;;;11.15;6.40;;;1.60;99.90;;;;;;4940970;29;20049;-82
2023/03/12 07:25:44;;;;;;;12.98;6.18;;;0.90;99.90;;;;;;4929984;29;20125;-82
2023/03/12 07:28:11;;;;;;;13.02;6.07;;;0.90;99.90;;;;;;4938155;29;20583;-82
2023/03/12 07:30:37;;;;;;;13.93;6.80;;;1.50;99.90;;;;;;4920120;29;20067;-82
2023/03/12 07:33:04;;;;;;;13.05;6.93;;;1.50;99.90;;;;;;4917868;29;20235;-82
2023/03/12 07:35:31;;;;;;;12.55;6.68;;;0.90;99.90;;;;;;4927866;29;20424;-82
2023/03/12 07:37:57;;;;;;;14.35;6.85;;;1.60;99.90;;;;;;4912979;29;20050;-82
2023/03/12 07:40:23;;;;;;;12.60;6.55;;;1.00;99.90;;;;;;4912962;29;20054;-82
2023/03/12 07:42:51;;;;;;;13.05;7.10;;;1.10;99.90;;;;;;4912252;29;20048;-82
2023/03/12 07:45:17;;;;;;;14.32;7.90;;;1.30;99.90;;;;;;4912613;29;20602;-82
2023/03/12 07:47:43;;;;;;;15.13;6.97;;;1.00;99.90;;;;;;4912592;29;20500;-83
2023/03/12 07:50:09;;;;;;;16.17;8.40;;;1.70;99.90;;;;;;4911900;29;20377;-83
2023/03/12 07:52:35;;;;;;;16.05;8.18;;;1.00;99.90;;;;;;4929187;29;20043;-82
2023/03/12 07:55:00;;;;;;;18.30;8.38;;;1.10;99.90;;;;;;4931594;29;20514;-83
2023/03/12 07:57:26;;;;;;;16.75;8.18;;;1.10;99.90;;;;;;4916574;29;20526;-82
2023/03/12 07:59:52;;;;;;;13.90;8.00;;;2.20;99.90;;;;;;4915551;29;20051;-83
2023/03/12 08:02:19;;;;;;;14.55;8.57;;;2.20;99.90;;;;;;4916636;29;20107;-83
2023/03/12 08:04:45;;;;;;;17.88;8.45;;;1.40;99.90;;;;;;4917427;29;20364;-83
2023/03/12 08:07:11;;;;;;;18.08;8.95;;;1.00;99.90;;;;;;4950065;29;20051;-83
2023/03/12 08:09:38;;;;;;;16.67;8.85;;;1.40;99.90;;;;;;4940492;29;20050;-83
2023/03/12 08:12:05;;;;;;;15.45;8.73;;;1.20;99.90;;;;;;4930903;29;20492;-85
2023/03/12 08:14:30;;;;;;;16.70;8.63;;;1.20;99.90;;;;;;4932736;29;20079;-87
2023/03/12 08:16:57;;;;;;;15.35;9.35;;;1.20;99.90;;;;;;4916019;29;20079;-86
2023/03/12 08:19:24;;;;;;;20.17;14.35;;;2.20;99.90;;;;;;4915773;29;20094;-85
2023/03/12 08:21:52;;;;;;;52.95;37.78;;;1.20;99.90;;;;;;4932138;29;20499;-85
2023/03/12 08:24:19;;;;;;;16.85;10.73;;;2.10;99.90;;;;;;4916658;29;20154;-87
2023/03/12 08:26:45;;;;;;;18.92;10.75;;;1.10;99.90;;;;;;4916267;29;20040;-87
2023/03/12 08:29:10;;;;;;;25.83;17.52;;;2.10;99.90;;;;;;4916664;29;20110;-87
2023/03/12 08:31:36;;;;;;;30.17;19.77;;;1.10;99.90;;;;;;4916570;29;20052;-86
2023/03/12 08:34:02;;;;;;;21.50;11.75;;;2.20;99.90;;;;;;4915755;29;20052;-86
2023/03/12 08:36:28;;;;;;;346.70;257.10;;;1.20;99.90;;;;;;4948464;29;20071;-87
2023/03/12 08:38:54;;;;;;;41.72;33.17;;;1.10;99.90;;;;;;4925685;29;20550;-87
2023/03/12 08:41:20;;;;;;;27.02;19.58;;;1.20;99.90;;;;;;4932068;29;20096;-88
2023/03/12 08:43:45;;;;;;;25.00;19.05;;;1.50;99.90;;;;;;4917372;29;20516;-87
2023/03/12 08:46:16;;;;;;;18.42;14.20;;;1.30;99.90;;;;;;4932349;29;20043;-88
2023/03/12 08:48:45;;;;;;;19.23;11.52;;;2.00;99.90;;;;;;4917699;29;20091;-88
2023/03/12 08:51:14;;;;;;;36.17;23.55;;;1.30;99.90;;;;;;4916541;29;20083;-87
2023/03/12 08:53:40;;;;;;;19.40;13.27;;;2.10;99.90;;;;;;4919435;29;20510;-90
2023/03/12 08:56:06;;;;;;;23.88;15.23;;;1.80;99.90;;;;;;4932611;29;20059;-86
2023/03/12 08:58:38;;;;;;;18.90;14.63;;;1.40;99.90;;;;;;4916760;29;20518;-87
2023/03/12 09:01:08;;;;;;;21.60;14.45;;;1.60;99.90;;;;;;4916583;29;20043;-87
2023/03/12 09:03:34;;;;;;;23.52;15.30;;;1.50;99.90;;;;;;4932666;29;20044;-87
2023/03/12 09:06:04;;;;;;;19.80;13.60;;;1.60;99.90;;;;;;4927726;29;20154;-87
2023/03/12 09:08:32;;;;;;;36.42;24.95;;;1.90;99.90;;;;;;4936092;29;20415;-87
2023/03/12 09:11:00;;;;;;;34.38;25.35;;;1.60;99.90;;;;;;4935721;29;20043;-86
2023/03/12 09:13:26;;;;;;;32.42;20.50;;;2.10;99.90;;;;;;4935545;29;20055;-87
2023/03/12 09:15:52;;;;;;;17.25;10.65;;;2.40;99.90;;;;;;4951360;28;20042;-87
2023/03/12 09:18:19;;;;;;;26.88;16.13;;;1.60;99.90;;;;;;4951408;28;20043;-86
2023/03/12 09:20:44;;;;;;;32.22;20.08;;;1.60;99.90;;;;;;4934920;29;20050;-88
2023/03/12 09:23:10;;;;;;;38.22;23.13;;;2.50;99.90;;;;;;4934718;29;20586;-86
2023/03/12 09:25:36;;;;;;;54.40;38.15;;;2.20;99.90;;;;;;4950854;28;20051;-86
2023/03/12 09:28:02;;;;;;;16.25;9.73;;;1.50;99.90;;;;;;4945420;29;20109;-87
2023/03/12 09:30:29;;;;;;;17.80;11.30;;;1.50;99.90;;;;;;4937207;29;20043;-87
2023/03/12 09:32:54;;;;;;;21.08;11.35;;;1.50;99.90;;;;;;4915430;29;20196;-85
2023/03/12 09:35:20;;;;;;;35.25;22.83;;;1.50;99.90;;;;;;4930242;29;20394;-85
2023/03/12 09:37:49;;;;;;;44.25;32.92;;;1.50;99.90;;;;;;4915123;29;20047;-86
2023/03/12 09:40:18;;;;;;;18.15;12.73;;;1.40;99.90;;;;;;4915415;29;20044;-87
2023/03/12 09:42:51;;;;;;;22.70;14.75;;;1.40;99.90;;;;;;4923784;29;20411;-86
2023/03/12 09:45:22;;;;;;;21.60;12.88;;;1.40;99.90;;;;;;4923935;29;20043;-86
2023/03/12 09:47:51;;;;;;;19.17;12.27;;;2.00;99.90;;;;;;4939868;29;20036;-87
2023/03/12 09:50:27;;;;;;;23.50;13.27;;;1.70;99.90;;;;;;4929228;29;20050;-87
2023/03/12 09:53:00;;;;;;;21.10;14.10;;;1.30;99.90;;;;;;4922819;29;20043;-87
2023/03/12 09:55:27;;;;;;;21.20;14.13;;;1.30;99.90;;;;;;4947480;29;20051;-86
2023/03/12 09:57:54;;;;;;;20.75;13.55;;;1.90;99.90;;;;;;4929795;29;20056;-85
2023/03/12 10:00:25;;;;;;;23.38;14.68;;;1.50;99.90;;;;;;4921232;29;20044;-86
2023/03/12 10:03:14;;;;;;;22.70;14.60;;;1.30;99.90;;;;;;4920054;29;20066;-88
2023/03/12 10:05:44;;;;;;;23.02;16.08;;;1.20;99.90;;;;;;4922250;29;20039;-88
2023/03/12 10:08:40;;;;;;;17.52;12.85;;;1.20;99.90;;;;;;4933851;29;20039;-88
2023/03/12 10:11:06;;;;;;;20.00;12.32;;;1.20;99.90;;;;;;4950060;29;20047;-88
2023/03/12 10:13:44;;;;;;;20.67;13.20;;;1.20;99.90;;;;;;4933212;29;20388;-87
2023/03/12 10:16:25;;;;;;;17.83;13.80;;;1.20;99.90;;;;;;4932821;29;20051;-88
2023/03/12 10:18:57;;;;;;;19.33;13.20;;;1.30;99.90;;;;;;4934034;29;20091;-88
2023/03/12 10:22:06;;;;;;;;;;;;;;;;;;;;;
2023/03/12 10:24:54;;;;;;;18.98;13.85;;;1.30;99.90;;;;;;4952253;28;20078;-93
2023/03/12 10:27:39;;;;;;;;;;;;;;;;;;;;;
2023/03/12 10:33:59;;;;;;;;;;;;;;;;;;;;;
2023/03/12 10:40:37;;;;;;;19.77;14.60;;;1.70;99.90;;;;;;4917241;29;20043;-87
2023/03/12 10:43:05;;;;;;;21.33;13.65;;;1.80;99.90;;;;;;4927394;29;20056;-89
2023/03/12 10:45:33;;;;;;;19.23;13.73;;;2.80;99.90;;;;;;4914307;29;20043;-91
2023/03/12 10:48:19;;;;;;;19.27;13.60;;;1.90;99.90;;;;;;4901052;29;20059;-90
2023/03/12 10:51:05;;;;;;;19.48;13.65;;;1.90;99.90;;;;;;4882244;29;20461;-91
2023/03/12 10:53:34;;;;;;;19.60;14.38;;;2.00;99.90;;;;;;4897325;29;20036;-90
2023/03/12 10:56:12;;;;;;;24.60;16.80;;;2.00;99.90;;;;;;4896677;29;20062;-92
2023/03/12 10:58:41;;;;;;;31.63;27.35;;;2.00;99.90;;;;;;4896786;29;20079;-93
2023/03/12 11:01:14;;;;;;;78.60;62.90;;;2.50;99.90;;;;;;4896554;29;20052;-92
2023/03/12 11:03:40;;;;;;;;;;;2.30;99.90;;;;;;4897952;29;20052;-92
2023/03/12 11:06:09;;;;;;;25.38;17.67;;;2.50;99.90;;;;;;4908208;29;20256;-94
2023/03/12 11:08:36;;;;;;;18.08;14.07;;;2.20;99.90;;;;;;4915016;29;20054;-90
2023/03/12 11:11:03;;;;;;;24.90;19.15;;;2.50;99.90;;;;;;4915556;29;20043;-88
2023/03/12 11:13:38;;;;;;;25.75;16.52;;;2.20;99.90;;;;;;4914845;29;20043;-88
2023/03/12 11:16:15;;;;;;;22.63;16.13;;;2.20;99.90;;;;;;4930058;29;20043;-88
2023/03/12 11:18:56;;;;;;;21.73;16.58;;;2.20;99.90;;;;;;4931319;29;20496;-90
2023/03/12 11:21:22;;;;;;;27.52;17.45;;;2.20;99.90;;;;;;4909821;29;20044;-87
2023/03/12 11:23:57;;;;;;;35.20;24.45;;;2.30;99.90;;;;;;4907781;29;20130;-86
2023/03/12 11:26:24;;;;;;;31.73;21.70;;;2.90;99.90;;;;;;4917943;29;20407;-86
2023/03/12 11:28:56;;;;;;;25.77;20.33;;;2.40;99.90;;;;;;4933186;29;20395;-87
2023/03/12 11:31:27;;;;;;;25.70;18.08;;;2.60;99.90;;;;;;4929666;29;20065;-86
2023/03/12 11:33:59;;;;;;;26.42;17.58;;;2.50;99.90;;;;;;4922031;29;20060;-86
2023/03/12 11:36:30;;;;;;;25.17;17.42;;;2.90;99.90;;;;;;4927484;29;20516;-87
2023/03/12 11:39:09;;;;;;;24.75;18.05;;;2.60;99.90;;;;;;4906748;29;20058;-87
2023/03/12 11:41:47;;;;;;;22.80;16.77;;;2.70;99.90;;;;;;4909733;29;20044;-88
2023/03/12 11:44:16;;;;;;;26.30;16.73;;;2.70;99.90;;;;;;4924687;29;20706;-89
2023/03/12 11:46:58;;;;;;;25.88;18.40;;;2.80;99.90;;;;;;4926192;29;20131;-90
2023/03/12 11:49:39;;;;;;;24.13;16.73;;;2.80;99.90;;;;;;4933837;29;20130;-88
2023/03/12 11:52:12;;;;;;;26.73;18.58;;;2.80;99.90;;;;;;4917745;29;20051;-88
2023/03/12 11:54:39;;;;;;;;;;;2.90;99.90;;;;;;4919852;29;20134;-88
2023/03/12 11:57:27;;;;;;;24.65;16.10;;;3.00;99.90;;;;;;4917501;29;19926;-87
2023/03/12 12:00:15;;;;;;;23.08;16.42;;;3.40;99.90;;;;;;4933597;29;20064;-87
2023/03/12 12:03:03;;;;;;;21.77;15.80;;;3.10;99.90;;;;;;4934408;29;20538;-88
2023/03/12 12:05:37;;;;;;;21.17;16.02;;;3.20;99.90;;;;;;4925130;29;20043;-87
2023/03/12 12:08:22;;;;;;;23.95;16.17;;;3.30;99.90;;;;;;4937553;29;20047;-89
2023/03/12 12:10:57;;;;;;;25.90;15.85;;;3.40;99.90;;;;;;4936897;29;20043;-87
2023/03/12 12:13:45;;;;;;;23.35;15.50;;;3.50;99.90;;;;;;4937014;29;20078;-88
2023/03/12 12:16:24;;;;;;;23.27;15.45;;;3.70;99.90;;;;;;4936807;29;20055;-88
2023/03/12 12:18:50;;;;;;;24.25;14.57;;;3.80;99.90;;;;;;4956285;28;20496;-88
2023/03/12 12:21:29;;;;;;;21.17;15.82;;;3.80;99.90;;;;;;4918466;29;20055;-88
2023/03/12 12:24:11;;;;;;;23.92;16.13;;;3.80;99.90;;;;;;4917571;29;20047;-87
2023/03/12 12:26:48;;;;;;;22.52;15.98;;;3.80;99.90;;;;;;4926151;29;20043;-88
2023/03/12 12:29:28;;;;;;;23.40;16.20;;;3.90;99.90;;;;;;4938662;29;20043;-89
2023/03/12 12:31:56;;;;;;;27.30;15.43;;;4.00;99.90;;;;;;4926518;29;20039;-87
2023/03/12 12:34:40;;;;;;;31.08;16.25;;;4.10;99.90;;;;;;4947498;29;20075;-88
2023/03/12 12:37:43;;;;;;;24.50;16.27;;;4.20;99.90;;;;;;4945468;29;20043;-88
2023/03/12 12:40:18;;;;;;;30.90;20.63;;;4.30;99.90;;;;;;4948932;28;20130;-88
2023/03/12 12:42:53;;;;;;;33.97;22.70;;;4.40;99.90;;;;;;4950661;28;20329;-88
2023/03/12 12:45:20;;;;;;;31.98;20.30;;;4.50;99.90;;;;;;4934128;29;20083;-88
2023/03/12 12:47:52;;;;;;;31.80;21.33;;;4.60;99.90;;;;;;4934079;29;20052;-87
2023/03/12 12:50:21;;;;;;;35.38;23.13;;;4.80;99.90;;;;;;4927295;29;20087;-88
2023/03/12 12:52:53;;;;;;;32.13;20.45;;;4.90;99.90;;;;;;4927560;29;20079;-87
2023/03/12 12:55:26;;;;;;;37.83;22.03;;;5.40;99.90;;;;;;4936595;29;20108;-86
2023/03/12 12:58:07;;;;;;;37.58;22.17;;;5.10;99.90;;;;;;4916189;29;20428;-88
2023/03/12 13:00:42;;;;;;;39.80;25.00;;;5.20;99.90;;;;;;4916799;29;20051;-88
2023/03/12 13:03:15;;;;;;;43.33;23.35;;;5.30;99.90;;;;;;4916888;29;20058;-88